sensor_id;sensor_type;location;lat;lon;timestamp;temperature;humidity
54614;DHT22;40514;52.758;6.360;2022-10-16T00:00:38;13.20;99.90
54614;DHT22;40514;52.758;6.360;2022-10-16T00:03:04;13.10;99.90
54614;DHT22;40514;52.758;6.360;2022-10-16T00:05:29;13.10;99.90
54614;DHT22;40514;52.758;6.360;2022-10-16T00:07:55;13.10;99.90
54614;DHT22;40514;52.758;6.360;2022-10-16T00:10:21;13.10;99.90
54614;DHT22;40514;52.758;6.360;2022-10-16T00:12:47;13.10;99.90
54614;DHT22;40514;52.758;6.360;2022-10-16T00:15:13;13.10;99.90
54614;DHT22;40514;52.758;6.360;2022-10-16T00:17:38;13.10;99.90
54614;DHT22;40514;52.758;6.360;2022-10-16T00:20:04;13.10;99.90
54614;DHT22;40514;52.758;6.360;2022-10-16T00:22:30;13.10;99.90
54614;DHT22;40514;52.758;6.360;2022-10-16T00:24:56;13.10;99.90
54614;DHT22;40514;52.758;6.360;2022-10-16T00:27:21;13.10;99.90
54614;DHT22;40514;52.758;6.360;2022-10-16T00:29:51;13.10;99.90
54614;DHT22;40514;52.758;6.360;2022-10-16T00:32:18;13.10;99.90
54614;DHT22;40514;52.758;6.360;2022-10-16T00:34:43;13.10;99.90
54614;DHT22;40514;52.758;6.360;2022-10-16T00:37:09;13.10;99.90
54614;DHT22;40514;52.758;6.360;2022-10-16T00:39:35;13.10;99.90
54614;DHT22;40514;52.758;6.360;2022-10-16T00:42:00;13.10;99.90
54614;DHT22;40514;52.758;6.360;2022-10-16T00:44:45;13.10;99.90
54614;DHT22;40514;52.758;6.360;2022-10-16T00:47:19;13.10;99.90
54614;DHT22;40514;52.758;6.360;2022-10-16T00:49:47;13.10;99.90
54614;DHT22;40514;52.758;6.360;2022-10-16T00:52:14;13.10;99.90
54614;DHT22;40514;52.758;6.360;2022-10-16T00:54:40;13.10;99.90
54614;DHT22;40514;52.758;6.360;2022-10-16T00:57:08;13.10;99.90
54614;DHT22;40514;52.758;6.360;2022-10-16T00:59:36;13.10;99.90
54614;DHT22;40514;52.758;6.360;2022-10-16T01:02:03;13.10;99.90
54614;DHT22;40514;52.758;6.360;2022-10-16T01:04:44;13.10;99.90
54614;DHT22;40514;52.758;6.360;2022-10-16T01:07:45;13.10;99.90
54614;DHT22;40514;52.758;6.360;2022-10-16T01:15:54;13.10;99.90
54614;DHT22;40514;52.758;6.360;2022-10-16T01:18:44;13.10;99.90
54614;DHT22;40514;52.758;6.360;2022-10-16T01:21:31;13.10;99.90
54614;DHT22;40514;52.758;6.360;2022-10-16T01:24:08;13.10;99.90
54614;DHT22;40514;52.758;6.360;2022-10-16T01:26:50;13.10;99.90
54614;DHT22;40514;52.758;6.360;2022-10-16T01:29:29;13.10;99.90
54614;DHT22;40514;52.758;6.360;2022-10-16T01:32:00;13.10;99.90
54614;DHT22;40514;52.758;6.360;2022-10-16T01:34:33;13.10;99.90
54614;DHT22;40514;52.758;6.360;2022-10-16T01:37:15;13.10;99.90
54614;DHT22;40514;52.758;6.360;2022-10-16T01:39:44;13.10;99.90
54614;DHT22;40514;52.758;6.360;2022-10-16T01:42:20;13.10;99.90
54614;DHT22;40514;52.758;6.360;2022-10-16T01:44:48;13.10;99.90
54614;DHT22;40514;52.758;6.360;2022-10-16T01:47:15;13.10;99.90
54614;DHT22;40514;52.758;6.360;2022-10-16T01:49:43;13.10;99.90
54614;DHT22;40514;52.758;6.360;2022-10-16T01:52:14;13.20;99.90
54614;DHT22;40514;52.758;6.360;2022-10-16T01:54:43;13.20;99.90
54614;DHT22;40514;52.758;6.360;2022-10-16T01:57:11;13.20;99.90
54614;DHT22;40514;52.758;6.360;2022-10-16T01:59:43;13.20;99.90
54614;DHT22;40514;52.758;6.360;2022-10-16T02:02:10;13.20;99.90
54614;DHT22;40514;52.758;6.360;2022-10-16T02:04:38;13.10;99.90
54614;DHT22;40514;52.758;6.360;2022-10-16T02:07:05;13.10;99.90
54614;DHT22;40514;52.758;6.360;2022-10-16T02:09:33;13.10;99.90
54614;DHT22;40514;52.758;6.360;2022-10-16T02:12:01;13.10;99.90
54614;DHT22;40514;52.758;6.360;2022-10-16T02:14:29;13.20;99.90
54614;DHT22;40514;52.758;6.360;2022-10-16T02:16:54;13.20;99.90
54614;DHT22;40514;52.758;6.360;2022-10-16T02:19:20;13.20;99.90
54614;DHT22;40514;52.758;6.360;2022-10-16T02:21:51;13.20;99.90
54614;DHT22;40514;52.758;6.360;2022-10-16T02:27:17;13.20;99.90
54614;DHT22;40514;52.758;6.360;2022-10-16T02:29:47;13.20;99.90
54614;DHT22;40514;52.758;6.360;2022-10-16T02:32:17;13.20;99.90
54614;DHT22;40514;52.758;6.360;2022-10-16T02:34:46;13.20;99.90
54614;DHT22;40514;52.758;6.360;2022-10-16T02:37:12;13.20;99.90
54614;DHT22;40514;52.758;6.360;2022-10-16T02:39:38;13.20;99.90
54614;DHT22;40514;52.758;6.360;2022-10-16T02:42:09;13.20;99.90
54614;DHT22;40514;52.758;6.360;2022-10-16T02:44:34;13.20;99.90
54614;DHT22;40514;52.758;6.360;2022-10-16T02:47:00;13.20;99.90
54614;DHT22;40514;52.758;6.360;2022-10-16T02:49:25;13.20;99.90
54614;DHT22;40514;52.758;6.360;2022-10-16T02:51:51;13.20;99.90
54614;DHT22;40514;52.758;6.360;2022-10-16T02:54:16;13.20;99.90
54614;DHT22;40514;52.758;6.360;2022-10-16T02:56:42;13.20;99.90
54614;DHT22;40514;52.758;6.360;2022-10-16T02:59:07;13.20;99.90
54614;DHT22;40514;52.758;6.360;2022-10-16T03:01:33;13.20;99.90
54614;DHT22;40514;52.758;6.360;2022-10-16T03:03:59;13.20;99.90
54614;DHT22;40514;52.758;6.360;2022-10-16T03:06:24;13.20;99.90
54614;DHT22;40514;52.758;6.360;2022-10-16T03:08:50;13.20;99.90
54614;DHT22;40514;52.758;6.360;2022-10-16T03:11:15;13.20;99.90
54614;DHT22;40514;52.758;6.360;2022-10-16T03:13:41;13.20;99.90
54614;DHT22;40514;52.758;6.360;2022-10-16T03:16:06;13.20;99.90
54614;DHT22;40514;52.758;6.360;2022-10-16T03:18:32;13.20;99.90
54614;DHT22;40514;52.758;6.360;2022-10-16T03:20:58;13.20;99.90
54614;DHT22;40514;52.758;6.360;2022-10-16T03:23:23;13.20;99.90
54614;DHT22;40514;52.758;6.360;2022-10-16T03:25:49;13.20;99.90
54614;DHT22;40514;52.758;6.360;2022-10-16T03:28:14;13.20;99.90
54614;DHT22;40514;52.758;6.360;2022-10-16T03:30:40;13.20;99.90
54614;DHT22;40514;52.758;6.360;2022-10-16T03:33:06;13.20;99.90
54614;DHT22;40514;52.758;6.360;2022-10-16T03:35:32;13.20;99.90
54614;DHT22;40514;52.758;6.360;2022-10-16T03:37:58;13.20;99.90
54614;DHT22;40514;52.758;6.360;2022-10-16T03:40:24;13.20;99.90
54614;DHT22;40514;52.758;6.360;2022-10-16T03:42:49;13.20;99.90
54614;DHT22;40514;52.758;6.360;2022-10-16T03:45:15;13.20;99.90
54614;DHT22;40514;52.758;6.360;2022-10-16T03:47:40;13.20;99.90
54614;DHT22;40514;52.758;6.360;2022-10-16T03:50:07;13.20;99.90
54614;DHT22;40514;52.758;6.360;2022-10-16T03:52:33;13.20;99.90
54614;DHT22;40514;52.758;6.360;2022-10-16T03:54:58;13.10;99.90
54614;DHT22;40514;52.758;6.360;2022-10-16T03:57:24;13.10;99.90
54614;DHT22;40514;52.758;6.360;2022-10-16T03:59:49;13.10;99.90
54614;DHT22;40514;52.758;6.360;2022-10-16T04:02:16;13.00;99.90
54614;DHT22;40514;52.758;6.360;2022-10-16T04:04:41;13.00;99.90
54614;DHT22;40514;52.758;6.360;2022-10-16T04:07:07;13.00;99.90
54614;DHT22;40514;52.758;6.360;2022-10-16T04:09:33;12.90;99.90
54614;DHT22;40514;52.758;6.360;2022-10-16T04:11:58;12.90;99.90
54614;DHT22;40514;52.758;6.360;2022-10-16T04:14:24;12.90;99.90
54614;DHT22;40514;52.758;6.360;2022-10-16T04:16:49;12.80;99.90
54614;DHT22;40514;52.758;6.360;2022-10-16T04:19:15;12.90;99.90
54614;DHT22;40514;52.758;6.360;2022-10-16T04:21:40;12.90;99.90
54614;DHT22;40514;52.758;6.360;2022-10-16T04:24:06;12.80;99.90
54614;DHT22;40514;52.758;6.360;2022-10-16T04:26:31;12.80;99.90
54614;DHT22;40514;52.758;6.360;2022-10-16T04:28:57;12.80;99.90
54614;DHT22;40514;52.758;6.360;2022-10-16T04:31:22;12.80;99.90
54614;DHT22;40514;52.758;6.360;2022-10-16T04:33:48;12.80;99.90
54614;DHT22;40514;52.758;6.360;2022-10-16T04:36:13;12.80;99.90
54614;DHT22;40514;52.758;6.360;2022-10-16T04:38:39;12.80;99.90
54614;DHT22;40514;52.758;6.360;2022-10-16T04:41:06;12.80;99.90
54614;DHT22;40514;52.758;6.360;2022-10-16T04:43:32;12.80;99.90
54614;DHT22;40514;52.758;6.360;2022-10-16T04:45:58;12.80;99.90
54614;DHT22;40514;52.758;6.360;2022-10-16T04:48:24;12.80;99.90
54614;DHT22;40514;52.758;6.360;2022-10-16T04:50:49;12.80;99.90
54614;DHT22;40514;52.758;6.360;2022-10-16T04:53:15;12.90;99.90
54614;DHT22;40514;52.758;6.360;2022-10-16T04:55:41;12.90;99.90
54614;DHT22;40514;52.758;6.360;2022-10-16T04:58:07;12.80;99.90
54614;DHT22;40514;52.758;6.360;2022-10-16T05:00:33;12.90;99.90
54614;DHT22;40514;52.758;6.360;2022-10-16T05:02:58;12.90;99.90
54614;DHT22;40514;52.758;6.360;2022-10-16T05:05:26;12.90;99.90
54614;DHT22;40514;52.758;6.360;2022-10-16T05:07:51;12.90;99.90
54614;DHT22;40514;52.758;6.360;2022-10-16T05:10:18;12.90;99.90
54614;DHT22;40514;52.758;6.360;2022-10-16T05:12:44;12.90;99.90
54614;DHT22;40514;52.758;6.360;2022-10-16T05:15:09;12.80;99.90
54614;DHT22;40514;52.758;6.360;2022-10-16T05:17:35;12.80;99.90
54614;DHT22;40514;52.758;6.360;2022-10-16T05:20:01;12.80;99.90
54614;DHT22;40514;52.758;6.360;2022-10-16T05:22:27;12.80;99.90
54614;DHT22;40514;52.758;6.360;2022-10-16T05:24:52;12.80;99.90
54614;DHT22;40514;52.758;6.360;2022-10-16T05:27:18;12.80;99.90
54614;DHT22;40514;52.758;6.360;2022-10-16T05:29:47;12.70;99.90
54614;DHT22;40514;52.758;6.360;2022-10-16T05:32:13;12.70;99.90
54614;DHT22;40514;52.758;6.360;2022-10-16T05:34:39;12.70;99.90
54614;DHT22;40514;52.758;6.360;2022-10-16T05:37:05;12.70;99.90
54614;DHT22;40514;52.758;6.360;2022-10-16T05:39:30;12.70;99.90
54614;DHT22;40514;52.758;6.360;2022-10-16T05:41:56;12.70;99.90
54614;DHT22;40514;52.758;6.360;2022-10-16T05:44:21;12.70;99.90
54614;DHT22;40514;52.758;6.360;2022-10-16T05:46:47;12.70;99.90
54614;DHT22;40514;52.758;6.360;2022-10-16T05:49:13;12.70;99.90
54614;DHT22;40514;52.758;6.360;2022-10-16T05:51:38;12.70;99.90
54614;DHT22;40514;52.758;6.360;2022-10-16T05:54:04;12.70;99.90
54614;DHT22;40514;52.758;6.360;2022-10-16T05:56:29;12.70;99.90
54614;DHT22;40514;52.758;6.360;2022-10-16T05:58:55;12.70;99.90
54614;DHT22;40514;52.758;6.360;2022-10-16T06:01:20;12.70;99.90
54614;DHT22;40514;52.758;6.360;2022-10-16T06:03:50;12.60;99.90
54614;DHT22;40514;52.758;6.360;2022-10-16T06:06:26;12.70;99.90
54614;DHT22;40514;52.758;6.360;2022-10-16T06:08:53;12.70;99.90
54614;DHT22;40514;52.758;6.360;2022-10-16T06:11:24;12.70;99.90
54614;DHT22;40514;52.758;6.360;2022-10-16T06:13:51;12.70;99.90
54614;DHT22;40514;52.758;6.360;2022-10-16T06:16:18;12.70;99.90
54614;DHT22;40514;52.758;6.360;2022-10-16T06:18:44;12.70;99.90
54614;DHT22;40514;52.758;6.360;2022-10-16T06:21:21;12.70;99.90
54614;DHT22;40514;52.758;6.360;2022-10-16T06:23:47;12.70;99.90
54614;DHT22;40514;52.758;6.360;2022-10-16T06:26:15;12.80;99.90
54614;DHT22;40514;52.758;6.360;2022-10-16T06:28:42;12.80;99.90
54614;DHT22;40514;52.758;6.360;2022-10-16T06:31:09;12.80;99.90
54614;DHT22;40514;52.758;6.360;2022-10-16T06:33:36;12.80;99.90
54614;DHT22;40514;52.758;6.360;2022-10-16T06:36:03;12.80;99.90
54614;DHT22;40514;52.758;6.360;2022-10-16T06:38:29;12.80;99.90
54614;DHT22;40514;52.758;6.360;2022-10-16T06:40:55;12.90;99.90
54614;DHT22;40514;52.758;6.360;2022-10-16T06:43:21;12.90;99.90
54614;DHT22;40514;52.758;6.360;2022-10-16T06:46:07;12.90;99.90
54614;DHT22;40514;52.758;6.360;2022-10-16T06:48:36;13.00;99.90
54614;DHT22;40514;52.758;6.360;2022-10-16T06:51:08;13.00;99.90
54614;DHT22;40514;52.758;6.360;2022-10-16T06:53:36;13.10;99.90
54614;DHT22;40514;52.758;6.360;2022-10-16T06:56:16;13.10;99.90
54614;DHT22;40514;52.758;6.360;2022-10-16T06:58:43;13.10;99.90
54614;DHT22;40514;52.758;6.360;2022-10-16T07:01:09;13.10;99.90
54614;DHT22;40514;52.758;6.360;2022-10-16T07:03:37;13.10;99.90
54614;DHT22;40514;52.758;6.360;2022-10-16T07:06:05;13.20;99.90
54614;DHT22;40514;52.758;6.360;2022-10-16T07:08:35;13.20;99.90
54614;DHT22;40514;52.758;6.360;2022-10-16T07:11:06;13.20;99.90
54614;DHT22;40514;52.758;6.360;2022-10-16T07:13:35;13.30;99.90
54614;DHT22;40514;52.758;6.360;2022-10-16T07:16:05;13.30;99.90
54614;DHT22;40514;52.758;6.360;2022-10-16T07:18:31;13.40;99.90
54614;DHT22;40514;52.758;6.360;2022-10-16T07:21:09;13.50;99.90
54614;DHT22;40514;52.758;6.360;2022-10-16T07:23:34;13.40;99.90
54614;DHT22;40514;52.758;6.360;2022-10-16T07:26:00;13.40;99.90
54614;DHT22;40514;52.758;6.360;2022-10-16T07:28:26;13.50;99.90
54614;DHT22;40514;52.758;6.360;2022-10-16T07:30:52;13.50;99.90
54614;DHT22;40514;52.758;6.360;2022-10-16T07:33:17;13.50;99.90
54614;DHT22;40514;52.758;6.360;2022-10-16T07:35:54;13.50;99.90
54614;DHT22;40514;52.758;6.360;2022-10-16T07:38:20;13.60;99.90
54614;DHT22;40514;52.758;6.360;2022-10-16T07:40:46;13.60;99.90
54614;DHT22;40514;52.758;6.360;2022-10-16T07:43:12;13.60;99.90
54614;DHT22;40514;52.758;6.360;2022-10-16T07:45:47;13.60;99.90
54614;DHT22;40514;52.758;6.360;2022-10-16T07:48:13;13.60;99.90
54614;DHT22;40514;52.758;6.360;2022-10-16T07:50:38;13.70;99.90
54614;DHT22;40514;52.758;6.360;2022-10-16T07:53:04;13.70;99.90
54614;DHT22;40514;52.758;6.360;2022-10-16T07:55:29;13.70;99.90
54614;DHT22;40514;52.758;6.360;2022-10-16T07:57:55;13.80;99.90
54614;DHT22;40514;52.758;6.360;2022-10-16T08:00:20;13.80;99.90
54614;DHT22;40514;52.758;6.360;2022-10-16T08:02:46;13.90;99.90
54614;DHT22;40514;52.758;6.360;2022-10-16T08:05:12;13.90;99.90
54614;DHT22;40514;52.758;6.360;2022-10-16T08:07:37;14.00;99.90
54614;DHT22;40514;52.758;6.360;2022-10-16T08:10:03;14.00;99.90
54614;DHT22;40514;52.758;6.360;2022-10-16T08:12:29;14.10;99.90
54614;DHT22;40514;52.758;6.360;2022-10-16T08:14:54;14.10;99.90
54614;DHT22;40514;52.758;6.360;2022-10-16T08:17:20;14.10;99.90
54614;DHT22;40514;52.758;6.360;2022-10-16T08:19:46;14.20;99.90
54614;DHT22;40514;52.758;6.360;2022-10-16T08:22:13;14.30;99.90
54614;DHT22;40514;52.758;6.360;2022-10-16T08:24:39;14.30;99.90
54614;DHT22;40514;52.758;6.360;2022-10-16T08:27:05;14.40;99.90
54614;DHT22;40514;52.758;6.360;2022-10-16T08:29:30;14.50;99.90
54614;DHT22;40514;52.758;6.360;2022-10-16T08:31:56;14.50;99.90
54614;DHT22;40514;52.758;6.360;2022-10-16T08:34:21;14.60;99.90
54614;DHT22;40514;52.758;6.360;2022-10-16T08:36:47;14.70;99.90
54614;DHT22;40514;52.758;6.360;2022-10-16T08:39:12;14.90;99.90
54614;DHT22;40514;52.758;6.360;2022-10-16T08:42:01;15.40;99.90
54614;DHT22;40514;52.758;6.360;2022-10-16T08:50:38;18.20;99.90
54614;DHT22;40514;52.758;6.360;2022-10-16T08:53:05;19.10;99.90
54614;DHT22;40514;52.758;6.360;2022-10-16T08:58:12;19.90;99.90
54614;DHT22;40514;52.758;6.360;2022-10-16T09:00:39;20.40;99.90
54614;DHT22;40514;52.758;6.360;2022-10-16T09:06:03;20.80;99.90
54614;DHT22;40514;52.758;6.360;2022-10-16T09:11:18;21.20;99.90
54614;DHT22;40514;52.758;6.360;2022-10-16T09:16:46;21.50;98.40
54614;DHT22;40514;52.758;6.360;2022-10-16T09:19:24;21.90;99.90
54614;DHT22;40514;52.758;6.360;2022-10-16T09:21:51;22.10;98.10
54614;DHT22;40514;52.758;6.360;2022-10-16T09:24:20;22.60;99.90
54614;DHT22;40514;52.758;6.360;2022-10-16T09:26:46;22.80;98.30
54614;DHT22;40514;52.758;6.360;2022-10-16T09:29:13;22.90;97.80
54614;DHT22;40514;52.758;6.360;2022-10-16T09:31:39;22.90;96.70
54614;DHT22;40514;52.758;6.360;2022-10-16T09:34:08;22.80;96.10
54614;DHT22;40514;52.758;6.360;2022-10-16T09:36:42;22.80;94.80
54614;DHT22;40514;52.758;6.360;2022-10-16T09:39:11;23.00;93.30
54614;DHT22;40514;52.758;6.360;2022-10-16T09:41:42;23.20;94.60
54614;DHT22;40514;52.758;6.360;2022-10-16T09:44:28;23.70;93.90
54614;DHT22;40514;52.758;6.360;2022-10-16T09:47:02;24.30;89.00
54614;DHT22;40514;52.758;6.360;2022-10-16T09:49:28;23.70;86.20
54614;DHT22;40514;52.758;6.360;2022-10-16T09:52:05;23.70;92.50
54614;DHT22;40514;52.758;6.360;2022-10-16T09:54:30;23.80;86.80
54614;DHT22;40514;52.758;6.360;2022-10-16T09:57:06;24.00;91.90
54614;DHT22;40514;52.758;6.360;2022-10-16T09:59:32;24.00;90.20
54614;DHT22;40514;52.758;6.360;2022-10-16T10:02:02;23.70;90.90
54614;DHT22;40514;52.758;6.360;2022-10-16T10:04:50;23.00;90.20
54614;DHT22;40514;52.758;6.360;2022-10-16T10:07:42;22.20;91.90
54614;DHT22;40514;52.758;6.360;2022-10-16T10:10:20;22.20;94.20
54614;DHT22;40514;52.758;6.360;2022-10-16T10:12:47;22.90;90.80
54614;DHT22;40514;52.758;6.360;2022-10-16T10:15:13;23.30;92.70
54614;DHT22;40514;52.758;6.360;2022-10-16T10:17:51;23.90;91.10
54614;DHT22;40514;52.758;6.360;2022-10-16T10:20:24;24.00;88.90
54614;DHT22;40514;52.758;6.360;2022-10-16T10:22:51;24.20;85.30
54614;DHT22;40514;52.758;6.360;2022-10-16T10:31:06;25.10;78.40
54614;DHT22;40514;52.758;6.360;2022-10-16T10:36:39;25.30;75.80
54614;DHT22;40514;52.758;6.360;2022-10-16T10:39:09;25.80;79.80
54614;DHT22;40514;52.758;6.360;2022-10-16T10:52:53;25.20;73.00
54614;DHT22;40514;52.758;6.360;2022-10-16T11:06:16;24.70;77.10
54614;DHT22;40514;52.758;6.360;2022-10-16T11:08:52;24.80;75.00
54614;DHT22;40514;52.758;6.360;2022-10-16T11:11:20;24.30;75.10
54614;DHT22;40514;52.758;6.360;2022-10-16T11:13:58;24.30;77.30
54614;DHT22;40514;52.758;6.360;2022-10-16T11:16:43;24.80;75.50
54614;DHT22;40514;52.758;6.360;2022-10-16T11:22:36;25.00;68.70
54614;DHT22;40514;52.758;6.360;2022-10-16T11:25:20;24.10;72.20
54614;DHT22;40514;52.758;6.360;2022-10-16T11:30:27;23.90;68.30
54614;DHT22;40514;52.758;6.360;2022-10-16T11:38:14;26.40;69.20
54614;DHT22;40514;52.758;6.360;2022-10-16T11:40:43;27.10;64.40
54614;DHT22;40514;52.758;6.360;2022-10-16T11:45:49;25.30;64.40
54614;DHT22;40514;52.758;6.360;2022-10-16T11:51:14;23.60;69.10
54614;DHT22;40514;52.758;6.360;2022-10-16T11:54:04;22.80;71.90
54614;DHT22;40514;52.758;6.360;2022-10-16T11:56:32;22.30;74.90
54614;DHT22;40514;52.758;6.360;2022-10-16T11:59:22;22.70;77.70
54614;DHT22;40514;52.758;6.360;2022-10-16T12:02:08;22.70;78.50
54614;DHT22;40514;52.758;6.360;2022-10-16T12:04:45;22.70;79.60
54614;DHT22;40514;52.758;6.360;2022-10-16T12:07:30;23.00;76.20
54614;DHT22;40514;52.758;6.360;2022-10-16T12:09:57;23.00;76.40
54614;DHT22;40514;52.758;6.360;2022-10-16T12:15:03;22.30;78.00
54614;DHT22;40514;52.758;6.360;2022-10-16T12:17:43;22.00;79.50
54614;DHT22;40514;52.758;6.360;2022-10-16T12:22:37;21.10;83.40
54614;DHT22;40514;52.758;6.360;2022-10-16T12:25:17;20.70;88.60
54614;DHT22;40514;52.758;6.360;2022-10-16T12:27:44;20.40;91.60
54614;DHT22;40514;52.758;6.360;2022-10-16T12:30:14;20.10;93.40
54614;DHT22;40514;52.758;6.360;2022-10-16T12:32:45;20.00;94.00
54614;DHT22;40514;52.758;6.360;2022-10-16T12:35:19;19.70;95.30
54614;DHT22;40514;52.758;6.360;2022-10-16T12:37:45;19.70;96.60
54614;DHT22;40514;52.758;6.360;2022-10-16T12:40:32;19.80;95.80
54614;DHT22;40514;52.758;6.360;2022-10-16T12:42:57;19.90;97.00
54614;DHT22;40514;52.758;6.360;2022-10-16T12:45:23;19.80;95.90
54614;DHT22;40514;52.758;6.360;2022-10-16T12:47:50;19.80;95.70
54614;DHT22;40514;52.758;6.360;2022-10-16T12:50:23;19.80;95.50
54614;DHT22;40514;52.758;6.360;2022-10-16T12:52:49;19.70;96.50
54614;DHT22;40514;52.758;6.360;2022-10-16T12:55:18;19.70;95.50
54614;DHT22;40514;52.758;6.360;2022-10-16T13:03:01;19.50;94.70
54614;DHT22;40514;52.758;6.360;2022-10-16T13:05:32;19.60;96.80
54614;DHT22;40514;52.758;6.360;2022-10-16T13:10:40;19.50;96.90
54614;DHT22;40514;52.758;6.360;2022-10-16T13:18:21;19.40;98.50
54614;DHT22;40514;52.758;6.360;2022-10-16T13:21:31;19.30;99.00
54614;DHT22;40514;52.758;6.360;2022-10-16T13:23:52;19.30;99.20
54614;DHT22;40514;52.758;6.360;2022-10-16T13:28:45;19.30;99.60
54614;DHT22;40514;52.758;6.360;2022-10-16T13:31:15;19.30;99.60
54614;DHT22;40514;52.758;6.360;2022-10-16T13:33:43;19.30;99.70
54614;DHT22;40514;52.758;6.360;2022-10-16T13:36:22;19.30;99.90
54614;DHT22;40514;52.758;6.360;2022-10-16T13:38:48;19.20;99.90
54614;DHT22;40514;52.758;6.360;2022-10-16T13:41:15;19.00;99.90
54614;DHT22;40514;52.758;6.360;2022-10-16T13:43:50;19.00;99.90
54614;DHT22;40514;52.758;6.360;2022-10-16T13:46:17;18.90;99.90
54614;DHT22;40514;52.758;6.360;2022-10-16T13:48:43;18.90;99.90
54614;DHT22;40514;52.758;6.360;2022-10-16T13:51:15;18.80;99.90
54614;DHT22;40514;52.758;6.360;2022-10-16T13:53:41;18.70;99.90
54614;DHT22;40514;52.758;6.360;2022-10-16T13:56:09;18.70;99.90
54614;DHT22;40514;52.758;6.360;2022-10-16T13:58:35;18.70;99.90
54614;DHT22;40514;52.758;6.360;2022-10-16T14:01:02;18.70;99.90
54614;DHT22;40514;52.758;6.360;2022-10-16T14:03:28;18.70;99.90
54614;DHT22;40514;52.758;6.360;2022-10-16T14:05:55;18.70;99.90
54614;DHT22;40514;52.758;6.360;2022-10-16T14:08:25;18.80;99.90
54614;DHT22;40514;52.758;6.360;2022-10-16T14:10:52;18.70;99.90
54614;DHT22;40514;52.758;6.360;2022-10-16T14:13:20;18.80;99.90
54614;DHT22;40514;52.758;6.360;2022-10-16T14:15:47;18.80;99.90
54614;DHT22;40514;52.758;6.360;2022-10-16T14:18:17;18.80;99.90
54614;DHT22;40514;52.758;6.360;2022-10-16T14:20:43;18.70;99.90
54614;DHT22;40514;52.758;6.360;2022-10-16T14:25:53;18.60;99.10
54614;DHT22;40514;52.758;6.360;2022-10-16T14:28:22;18.50;99.40
54614;DHT22;40514;52.758;6.360;2022-10-16T14:30:49;18.40;98.70
54614;DHT22;40514;52.758;6.360;2022-10-16T14:33:20;18.40;99.20
54614;DHT22;40514;52.758;6.360;2022-10-16T14:35:46;18.40;98.40
54614;DHT22;40514;52.758;6.360;2022-10-16T14:38:18;18.30;98.20
54614;DHT22;40514;52.758;6.360;2022-10-16T14:40:46;18.20;97.30
54614;DHT22;40514;52.758;6.360;2022-10-16T14:43:24;18.20;98.80
54614;DHT22;40514;52.758;6.360;2022-10-16T14:45:52;18.10;99.20
54614;DHT22;40514;52.758;6.360;2022-10-16T14:48:18;18.10;98.80
54614;DHT22;40514;52.758;6.360;2022-10-16T14:50:45;18.10;98.90
54614;DHT22;40514;52.758;6.360;2022-10-16T14:53:11;18.10;99.10
54614;DHT22;40514;52.758;6.360;2022-10-16T14:55:37;18.00;99.00
54614;DHT22;40514;52.758;6.360;2022-10-16T14:58:03;18.10;99.20
54614;DHT22;40514;52.758;6.360;2022-10-16T15:00:28;18.00;99.60
54614;DHT22;40514;52.758;6.360;2022-10-16T15:02:53;18.00;99.60
54614;DHT22;40514;52.758;6.360;2022-10-16T15:05:26;18.00;99.70
54614;DHT22;40514;52.758;6.360;2022-10-16T15:07:53;18.00;99.90
54614;DHT22;40514;52.758;6.360;2022-10-16T15:10:19;18.00;99.90
54614;DHT22;40514;52.758;6.360;2022-10-16T15:12:44;18.20;99.90
54614;DHT22;40514;52.758;6.360;2022-10-16T15:17:48;17.80;99.90
54614;DHT22;40514;52.758;6.360;2022-10-16T15:20:13;17.80;99.90
54614;DHT22;40514;52.758;6.360;2022-10-16T15:22:39;17.80;99.90
54614;DHT22;40514;52.758;6.360;2022-10-16T15:27:49;17.70;99.90
54614;DHT22;40514;52.758;6.360;2022-10-16T15:30:14;17.70;99.90
54614;DHT22;40514;52.758;6.360;2022-10-16T15:32:39;17.70;99.90
54614;DHT22;40514;52.758;6.360;2022-10-16T15:35:07;17.60;99.90
54614;DHT22;40514;52.758;6.360;2022-10-16T15:37:33;17.60;99.90
54614;DHT22;40514;52.758;6.360;2022-10-16T15:39:58;17.60;99.90
54614;DHT22;40514;52.758;6.360;2022-10-16T15:42:24;17.50;99.90
54614;DHT22;40514;52.758;6.360;2022-10-16T15:44:49;17.50;99.90
54614;DHT22;40514;52.758;6.360;2022-10-16T15:47:15;17.40;99.90
54614;DHT22;40514;52.758;6.360;2022-10-16T15:49:40;17.50;99.90
54614;DHT22;40514;52.758;6.360;2022-10-16T15:52:06;17.40;99.90
54614;DHT22;40514;52.758;6.360;2022-10-16T15:54:31;17.30;99.90
54614;DHT22;40514;52.758;6.360;2022-10-16T15:56:56;17.30;99.90
54614;DHT22;40514;52.758;6.360;2022-10-16T15:59:22;17.30;99.90
54614;DHT22;40514;52.758;6.360;2022-10-16T16:01:47;17.20;99.90
54614;DHT22;40514;52.758;6.360;2022-10-16T16:04:13;17.10;99.90
54614;DHT22;40514;52.758;6.360;2022-10-16T16:06:38;16.90;99.90
54614;DHT22;40514;52.758;6.360;2022-10-16T16:09:10;16.80;99.90
54614;DHT22;40514;52.758;6.360;2022-10-16T16:11:35;16.70;99.90
54614;DHT22;40514;52.758;6.360;2022-10-16T16:14:07;16.60;99.90
54614;DHT22;40514;52.758;6.360;2022-10-16T16:16:32;16.50;99.90
54614;DHT22;40514;52.758;6.360;2022-10-16T16:19:03;16.30;99.90
54614;DHT22;40514;52.758;6.360;2022-10-16T16:21:29;16.20;99.90
54614;DHT22;40514;52.758;6.360;2022-10-16T16:23:55;16.20;99.90
54614;DHT22;40514;52.758;6.360;2022-10-16T16:26:24;16.00;99.90
54614;DHT22;40514;52.758;6.360;2022-10-16T16:28:56;15.90;99.90
54614;DHT22;40514;52.758;6.360;2022-10-16T16:31:26;15.90;99.90
54614;DHT22;40514;52.758;6.360;2022-10-16T16:33:51;15.90;99.90
54614;DHT22;40514;52.758;6.360;2022-10-16T16:36:17;15.80;99.90
54614;DHT22;40514;52.758;6.360;2022-10-16T16:38:43;15.80;99.90
54614;DHT22;40514;52.758;6.360;2022-10-16T16:43:37;15.70;99.90
54614;DHT22;40514;52.758;6.360;2022-10-16T16:46:02;15.60;99.90
54614;DHT22;40514;52.758;6.360;2022-10-16T16:48:28;15.50;99.90
54614;DHT22;40514;52.758;6.360;2022-10-16T16:50:54;15.40;99.90
54614;DHT22;40514;52.758;6.360;2022-10-16T16:53:19;15.40;99.90
54614;DHT22;40514;52.758;6.360;2022-10-16T16:55:45;15.30;99.90
54614;DHT22;40514;52.758;6.360;2022-10-16T16:58:11;15.30;99.90
54614;DHT22;40514;52.758;6.360;2022-10-16T17:00:36;15.20;99.90
54614;DHT22;40514;52.758;6.360;2022-10-16T17:03:02;15.20;99.90
54614;DHT22;40514;52.758;6.360;2022-10-16T17:05:27;15.10;99.90
54614;DHT22;40514;52.758;6.360;2022-10-16T17:07:53;15.00;99.90
54614;DHT22;40514;52.758;6.360;2022-10-16T17:10:18;15.00;99.90
54614;DHT22;40514;52.758;6.360;2022-10-16T17:12:44;14.90;99.90
54614;DHT22;40514;52.758;6.360;2022-10-16T17:15:09;14.90;99.90
54614;DHT22;40514;52.758;6.360;2022-10-16T17:17:35;14.80;99.90
54614;DHT22;40514;52.758;6.360;2022-10-16T17:20:00;14.70;99.90
54614;DHT22;40514;52.758;6.360;2022-10-16T17:22:26;14.70;99.90